createdAt,value
2023-01-19T00:01:48.553Z,5.85
2023-01-19T00:04:14.960Z,6.47
2023-01-19T00:06:41.381Z,5.72
2023-01-19T00:09:07.806Z,6.10
2023-01-19T00:11:34.243Z,5.88
2023-01-19T00:14:00.650Z,5.85
2023-01-19T00:16:27.140Z,6.60
2023-01-19T00:18:53.636Z,6.32
2023-01-19T00:21:20.136Z,6.68
2023-01-19T00:23:46.561Z,4.68
2023-01-19T00:26:16.121Z,6.55
2023-01-19T00:28:43.645Z,6.03
2023-01-19T00:31:10.181Z,6.50
2023-01-19T00:33:36.780Z,5.65
2023-01-19T00:36:03.984Z,5.88
2023-01-19T00:38:30.493Z,6.35
2023-01-19T00:40:56.901Z,5.88
2023-01-19T00:43:23.332Z,5.95
2023-01-19T00:45:49.755Z,5.88
2023-01-19T00:48:16.202Z,6.15
2023-01-19T00:50:42.583Z,5.25
2023-01-19T00:53:09.020Z,6.35
2023-01-19T00:55:35.410Z,5.88
2023-01-19T00:58:01.848Z,5.55
2023-01-19T01:00:28.371Z,5.88
2023-01-19T01:02:54.842Z,5.93
2023-01-19T01:05:21.343Z,6.30
2023-01-19T01:07:48.293Z,6.82
2023-01-19T01:10:22.287Z,5.35
2023-01-19T01:12:57.740Z,6.15
2023-01-19T01:15:26.705Z,4.93
2023-01-19T01:17:53.370Z,6.18
2023-01-19T01:20:24.534Z,6.45
2023-01-19T01:22:51.705Z,6.70
2023-01-19T01:25:19.204Z,7.18
2023-01-19T01:27:45.630Z,7.40
2023-01-19T01:30:13.544Z,6.57
2023-01-19T01:32:40.165Z,6.50
2023-01-19T01:35:07.149Z,6.15
2023-01-19T01:37:33.552Z,6.25
2023-01-19T01:39:59.996Z,6.75
2023-01-19T01:42:30.099Z,6.45
2023-01-19T01:44:57.837Z,5.60
2023-01-19T01:47:29.035Z,6.32
2023-01-19T01:50:27.580Z,5.30
2023-01-19T01:53:08.172Z,5.55
2023-01-19T01:55:43.824Z,6.75
2023-01-19T01:58:10.224Z,6.70
2023-01-19T02:00:36.666Z,5.90
2023-01-19T02:03:03.586Z,6.45
2023-01-19T02:05:32.998Z,5.72
2023-01-19T02:08:10.051Z,6.25
2023-01-19T02:10:36.495Z,5.82
2023-01-19T02:13:03.586Z,5.47
2023-01-19T02:15:30.088Z,6.13
2023-01-19T02:17:56.513Z,5.47
2023-01-19T02:20:22.891Z,4.90
2023-01-19T02:22:49.790Z,5.78
2023-01-19T02:25:16.511Z,5.55
2023-01-19T02:27:42.979Z,6.65
2023-01-19T02:30:10.009Z,6.03
2023-01-19T02:32:36.427Z,6.22
2023-01-19T02:35:02.824Z,6.40
2023-01-19T02:37:29.838Z,5.97
2023-01-19T02:39:57.773Z,6.18
2023-01-19T02:42:33.872Z,6.18
2023-01-19T02:45:00.253Z,5.43
2023-01-19T02:47:26.680Z,6.18
2023-01-19T02:50:00.465Z,5.25
2023-01-19T02:52:27.135Z,5.80
2023-01-19T02:55:16.734Z,6.72
2023-01-19T02:57:53.309Z,6.05
2023-01-19T03:01:16.925Z,5.53
2023-01-19T03:04:07.815Z,6.00
2023-01-19T03:06:47.099Z,6.13
2023-01-19T03:09:25.698Z,5.45
2023-01-19T03:11:56.767Z,5.80
2023-01-19T03:14:24.360Z,7.20
2023-01-19T03:16:52.147Z,6.90
2023-01-19T03:19:26.327Z,7.45
2023-01-19T03:22:00.272Z,6.25
2023-01-19T03:24:29.186Z,6.40
2023-01-19T03:26:58.636Z,5.80
2023-01-19T03:29:27.080Z,6.53
2023-01-19T03:31:53.477Z,5.32
2023-01-19T03:34:19.984Z,6.10
2023-01-19T03:36:51.001Z,5.78
2023-01-19T03:39:24.349Z,5.55
2023-01-19T03:41:53.411Z,6.28
2023-01-19T03:44:19.829Z,6.80
2023-01-19T03:46:46.475Z,5.82
2023-01-19T03:49:12.859Z,6.53
2023-01-19T03:51:39.258Z,6.53
2023-01-19T03:54:06.520Z,7.20
2023-01-19T03:56:32.951Z,6.28
2023-01-19T03:58:59.352Z,6.80
2023-01-19T04:01:25.908Z,6.43
2023-01-19T04:03:52.729Z,6.53
2023-01-19T04:06:19.907Z,6.55
2023-01-19T04:08:48.013Z,6.47
2023-01-19T04:11:14.572Z,6.00
2023-01-19T04:13:41.064Z,6.50
2023-01-19T04:16:07.728Z,6.65
2023-01-19T04:18:34.907Z,7.22
2023-01-19T04:21:05.908Z,6.30
2023-01-19T04:23:32.328Z,6.28
2023-01-19T04:26:02.097Z,7.22
2023-01-19T04:28:28.539Z,7.05
2023-01-19T04:30:55.113Z,7.38
2023-01-19T04:33:21.947Z,7.65
2023-01-19T04:35:48.838Z,7.65
2023-01-19T04:38:15.256Z,7.10
2023-01-19T04:40:41.656Z,7.30
2023-01-19T04:43:08.213Z,7.13
2023-01-19T04:45:34.625Z,7.13
2023-01-19T04:48:01.029Z,7.60
2023-01-19T04:50:27.412Z,6.65
2023-01-19T04:52:53.849Z,8.60
2023-01-19T04:55:20.271Z,7.55
2023-01-19T04:57:46.693Z,7.85
2023-01-19T05:00:13.453Z,8.20
2023-01-19T05:02:39.906Z,5.13
2023-01-19T05:05:06.434Z,7.00
2023-01-19T05:07:32.850Z,8.00
2023-01-19T05:09:59.221Z,7.35
2023-01-19T05:12:25.637Z,8.48
2023-01-19T05:14:52.030Z,8.63
2023-01-19T05:17:18.451Z,7.10
2023-01-19T05:19:45.039Z,7.28
2023-01-19T05:22:11.473Z,7.53
2023-01-19T05:24:37.863Z,7.05
2023-01-19T05:27:04.298Z,7.53
2023-01-19T05:29:30.717Z,6.75
2023-01-19T05:31:57.202Z,7.55
2023-01-19T05:34:23.633Z,7.32
2023-01-19T05:36:50.051Z,7.65
2023-01-19T05:39:16.457Z,8.00
2023-01-19T05:41:42.871Z,8.07
2023-01-19T05:44:09.589Z,8.70
2023-01-19T05:46:36.001Z,8.13
2023-01-19T05:49:02.421Z,7.22
2023-01-19T05:51:28.832Z,7.15
2023-01-19T05:53:55.267Z,7.93
2023-01-19T05:56:21.656Z,6.63
2023-01-19T05:58:48.077Z,8.43
2023-01-19T06:01:14.506Z,7.63
2023-01-19T06:03:41.077Z,7.75
2023-01-19T06:06:07.572Z,7.65
2023-01-19T06:08:34.120Z,7.47
2023-01-19T06:11:00.551Z,7.65
2023-01-19T06:13:27.011Z,8.45
2023-01-19T06:15:58.221Z,7.72
2023-01-19T06:18:24.684Z,8.13
2023-01-19T06:20:51.173Z,8.20
2023-01-19T06:23:17.557Z,7.35
2023-01-19T06:25:44.255Z,8.70
2023-01-19T06:28:10.681Z,8.38
2023-01-19T06:30:37.168Z,7.97
2023-01-19T06:33:03.759Z,7.22
2023-01-19T06:35:30.280Z,7.00
2023-01-19T06:37:56.667Z,7.80
2023-01-19T06:40:23.191Z,8.02
2023-01-19T06:42:51.075Z,7.88
2023-01-19T06:45:17.569Z,8.43
2023-01-19T06:47:43.968Z,8.60
2023-01-19T06:50:10.801Z,8.68
2023-01-19T06:52:37.198Z,8.38
2023-01-19T06:55:03.883Z,8.40
2023-01-19T06:57:30.288Z,8.20
2023-01-19T06:59:56.775Z,6.30
2023-01-19T07:02:26.141Z,8.05
2023-01-19T07:04:54.864Z,8.07
2023-01-19T07:07:21.283Z,8.93
2023-01-19T07:09:48.115Z,8.95
2023-01-19T07:12:14.604Z,8.55
2023-01-19T07:14:41.062Z,7.35
2023-01-19T07:17:07.499Z,8.25
2023-01-19T07:19:33.916Z,8.55
2023-01-19T07:22:00.364Z,8.25
2023-01-19T07:24:26.837Z,8.98
2023-01-19T07:26:53.252Z,9.50
2023-01-19T07:29:19.631Z,8.45
2023-01-19T07:31:46.163Z,9.40
2023-01-19T07:34:12.661Z,9.60
2023-01-19T07:36:40.194Z,9.68
2023-01-19T07:39:06.590Z,7.57
2023-01-19T07:41:33.000Z,9.75
2023-01-19T07:43:59.419Z,9.63
2023-01-19T07:46:25.911Z,10.45
2023-01-19T07:48:52.321Z,10.82
2023-01-19T07:51:18.844Z,9.65
2023-01-19T07:53:45.669Z,9.75
2023-01-19T07:56:12.169Z,8.55
2023-01-19T07:58:39.109Z,10.02
2023-01-19T08:01:07.311Z,10.55
2023-01-19T08:03:35.028Z,9.13
2023-01-19T08:06:01.443Z,10.02
2023-01-19T08:08:29.726Z,10.80
2023-01-19T08:10:56.163Z,9.90
2023-01-19T08:13:22.619Z,8.88
2023-01-19T08:15:52.410Z,9.48
2023-01-19T08:18:19.220Z,9.57
2023-01-19T08:20:45.747Z,9.40
2023-01-19T08:23:12.216Z,9.18
2023-01-19T08:25:40.052Z,9.85
2023-01-19T08:28:06.843Z,9.85
2023-01-19T08:30:33.324Z,9.02
2023-01-19T08:33:00.124Z,8.43
2023-01-19T08:35:26.756Z,8.77
2023-01-19T08:37:53.212Z,8.82
2023-01-19T08:40:19.656Z,8.82
2023-01-19T08:42:46.162Z,7.97
2023-01-19T08:45:12.556Z,8.07
2023-01-19T08:47:39.017Z,8.63
2023-01-19T08:50:05.880Z,8.90
2023-01-19T08:52:32.265Z,8.32
2023-01-19T08:54:58.720Z,8.18
2023-01-19T08:57:25.172Z,8.75
2023-01-19T08:59:51.668Z,6.78
2023-01-19T09:02:19.350Z,7.57
2023-01-19T09:04:45.768Z,8.70
2023-01-19T09:07:12.215Z,8.30
2023-01-19T09:09:38.653Z,8.75
2023-01-19T09:12:05.216Z,7.50
2023-01-19T09:14:31.642Z,7.88
2023-01-19T09:16:58.028Z,9.30
2023-01-19T09:19:24.521Z,8.20
2023-01-19T09:21:53.004Z,7.88
2023-01-19T09:24:19.519Z,9.70
2023-01-19T09:26:45.923Z,9.18
2023-01-19T09:29:13.408Z,7.70
2023-01-19T09:31:39.970Z,8.30
2023-01-19T09:34:06.664Z,8.27
2023-01-19T09:36:33.113Z,9.23
2023-01-19T09:38:59.578Z,8.18
2023-01-19T09:41:25.998Z,10.23
2023-01-19T09:43:57.232Z,9.35
2023-01-19T09:46:42.181Z,8.98
2023-01-19T09:49:17.543Z,8.57
2023-01-19T09:51:45.285Z,8.68
2023-01-19T09:54:11.654Z,9.13
2023-01-19T09:56:38.251Z,8.13
2023-01-19T09:59:28.789Z,9.65
2023-01-19T10:02:06.026Z,8.50
2023-01-19T10:04:37.212Z,8.57
2023-01-19T10:07:09.734Z,8.23
2023-01-19T10:10:02.137Z,8.35
2023-01-19T10:12:49.393Z,8.45
2023-01-19T10:15:42.153Z,8.82
2023-01-19T10:18:19.556Z,9.02
2023-01-19T10:20:48.955Z,8.60
2023-01-19T10:24:05.874Z,9.05
2023-01-19T10:26:34.186Z,9.35
2023-01-19T10:29:24.449Z,8.23
2023-01-19T10:32:18.332Z,8.80
2023-01-19T10:34:44.764Z,7.20
2023-01-19T10:37:17.440Z,8.25
2023-01-19T10:39:51.746Z,8.48
2023-01-19T10:42:18.465Z,8.40
2023-01-19T10:44:45.189Z,7.03
2023-01-19T10:47:16.744Z,8.32
2023-01-19T10:49:43.457Z,6.78
2023-01-19T10:52:32.294Z,9.43
2023-01-19T10:54:58.979Z,8.02
2023-01-19T10:57:35.325Z,7.93
2023-01-19T11:00:01.936Z,7.13
2023-01-19T11:02:29.734Z,7.70
2023-01-19T11:05:21.773Z,7.72
2023-01-19T11:07:48.296Z,8.48
2023-01-19T11:10:17.581Z,8.38
2023-01-19T11:13:06.885Z,8.25
2023-01-19T11:15:41.034Z,8.55
2023-01-19T11:18:07.520Z,7.28
2023-01-19T11:21:06.793Z,8.18
2023-01-19T11:23:33.768Z,6.88
2023-01-19T11:26:01.348Z,8.52
2023-01-19T11:28:36.795Z,8.35
2023-01-19T11:31:17.181Z,8.50
2023-01-19T11:33:47.082Z,7.88
2023-01-19T11:36:21.561Z,8.90
2023-01-19T11:38:49.611Z,8.70
2023-01-19T11:41:19.859Z,8.25
2023-01-19T11:43:50.392Z,7.97
2023-01-19T11:46:17.015Z,7.65
2023-01-19T11:48:46.809Z,7.72
2023-01-19T11:51:17.355Z,6.97
2023-01-19T11:53:46.082Z,7.72
2023-01-19T11:56:14.067Z,8.70
2023-01-19T11:58:44.737Z,8.38
2023-01-19T12:01:13.993Z,8.52
2023-01-19T12:03:48.951Z,8.02
2023-01-19T12:06:18.909Z,9.63
2023-01-19T12:11:23.291Z,7.10
2023-01-19T12:13:49.772Z,7.80
2023-01-19T12:16:20.641Z,8.57
2023-01-19T12:18:50.931Z,8.05
2023-01-19T12:21:17.503Z,7.80
2023-01-19T12:24:04.558Z,8.43
2023-01-19T12:26:52.953Z,7.05
2023-01-19T12:29:20.384Z,8.10
2023-01-19T12:31:46.895Z,9.35
2023-01-19T12:34:39.530Z,6.75
2023-01-19T12:37:06.747Z,6.95
2023-01-19T12:39:33.166Z,7.85
2023-01-19T12:42:14.012Z,7.78
2023-01-19T12:44:40.484Z,7.13
2023-01-19T12:47:27.085Z,7.55
2023-01-19T12:50:03.803Z,6.80
2023-01-19T12:52:39.735Z,7.32
2023-01-19T12:55:20.341Z,7.63
2023-01-19T12:58:16.138Z,7.85
2023-01-19T13:00:43.535Z,6.78
2023-01-19T13:03:15.957Z,8.57
2023-01-19T13:05:43.431Z,7.90
2023-01-19T13:08:09.718Z,7.82
2023-01-19T13:11:01.530Z,7.90
2023-01-19T13:14:00.273Z,6.93
2023-01-19T13:16:26.539Z,7.45
2023-01-19T13:19:00.575Z,6.35
2023-01-19T13:21:32.161Z,7.57
2023-01-19T13:24:04.871Z,5.57
2023-01-19T13:26:34.456Z,5.97
2023-01-19T13:29:10.236Z,6.53
2023-01-19T13:31:38.322Z,6.07
2023-01-19T13:34:09.589Z,7.63
2023-01-19T13:36:37.133Z,6.72
2023-01-19T13:41:46.117Z,5.80
2023-01-19T13:44:22.771Z,7.00
2023-01-19T13:46:49.309Z,6.78
2023-01-19T13:49:35.778Z,7.65
2023-01-19T13:52:05.211Z,5.55
2023-01-19T13:54:31.694Z,5.53
2023-01-19T13:56:58.095Z,6.53
2023-01-19T13:59:24.531Z,5.65
2023-01-19T14:01:51.146Z,6.65
2023-01-19T14:04:28.933Z,5.43
2023-01-19T14:06:57.665Z,6.18
2023-01-19T14:09:24.103Z,6.50
2023-01-19T14:12:15.966Z,5.82
2023-01-19T14:14:43.279Z,5.38
2023-01-19T14:17:28.909Z,6.75
2023-01-19T14:19:58.669Z,4.80
2023-01-19T14:22:45.646Z,6.60
2023-01-19T14:25:34.661Z,6.18
2023-01-19T14:28:29.583Z,5.53
2023-01-19T14:31:00.459Z,5.45
2023-01-19T14:33:40.403Z,5.47
2023-01-19T14:36:37.388Z,4.95
2023-01-19T14:39:03.924Z,5.63
2023-01-19T14:41:38.974Z,5.18
2023-01-19T14:44:09.746Z,5.25
2023-01-19T14:46:37.702Z,5.20
2023-01-19T14:49:06.074Z,5.75
2023-01-19T14:51:32.645Z,5.47
2023-01-19T14:54:00.648Z,5.60
2023-01-19T14:56:31.453Z,5.85
2023-01-19T14:58:58.887Z,6.00
2023-01-19T15:01:25.791Z,5.45
2023-01-19T15:03:52.429Z,5.55
2023-01-19T15:06:20.007Z,5.18
2023-01-19T15:08:46.755Z,6.13
2023-01-19T15:11:21.372Z,5.90
2023-01-19T15:13:47.867Z,5.80
2023-01-19T15:16:14.327Z,5.53
2023-01-19T15:18:40.931Z,5.70
2023-01-19T15:21:16.460Z,5.88
2023-01-19T15:23:44.185Z,6.03
2023-01-19T15:26:12.759Z,5.68
2023-01-19T15:28:39.181Z,5.50
2023-01-19T15:31:05.838Z,5.85
2023-01-19T15:33:32.725Z,6.00
2023-01-19T15:35:59.167Z,4.60
2023-01-19T15:38:25.565Z,5.55
2023-01-19T15:40:52.015Z,4.90
2023-01-19T15:43:18.457Z,5.63
2023-01-19T15:45:54.552Z,5.57
2023-01-19T15:48:21.053Z,5.05
2023-01-19T15:50:47.479Z,4.97
2023-01-19T15:53:23.084Z,4.55
2023-01-19T15:55:50.950Z,4.38
2023-01-19T15:58:17.814Z,4.50
2023-01-19T16:00:44.281Z,4.75
2023-01-19T16:03:10.796Z,4.75
2023-01-19T16:05:42.898Z,4.30
2023-01-19T16:08:11.115Z,4.70
2023-01-19T16:10:40.187Z,3.30
2023-01-19T16:13:06.635Z,5.10
2023-01-19T16:15:34.913Z,4.60
2023-01-19T16:18:01.333Z,4.55
2023-01-19T16:20:27.805Z,4.60
2023-01-19T16:22:56.522Z,4.40
2023-01-19T16:25:24.937Z,4.65
2023-01-19T16:27:51.361Z,4.30
2023-01-19T16:30:18.022Z,4.30
2023-01-19T16:32:44.607Z,4.03
2023-01-19T16:35:11.109Z,4.07
2023-01-19T16:37:37.514Z,3.53
2023-01-19T16:40:04.362Z,4.18
2023-01-19T16:42:30.791Z,3.53
2023-01-19T16:44:57.219Z,3.90
2023-01-19T16:47:23.711Z,3.70
2023-01-19T16:49:50.284Z,3.40
2023-01-19T16:52:16.884Z,3.60
2023-01-19T16:54:43.505Z,2.67
2023-01-19T16:57:10.119Z,3.25
2023-01-19T16:59:36.643Z,4.22
2023-01-19T17:02:03.309Z,3.17
2023-01-19T17:04:29.764Z,3.08
2023-01-19T17:06:56.274Z,3.53
2023-01-19T17:09:22.701Z,3.05
2023-01-19T17:11:49.144Z,3.67
2023-01-19T17:14:17.367Z,3.25
2023-01-19T17:16:43.875Z,2.50
2023-01-19T17:19:13.694Z,3.25
2023-01-19T17:21:40.125Z,2.97
2023-01-19T17:24:06.848Z,3.03
2023-01-19T17:26:33.235Z,3.60
2023-01-19T17:29:00.879Z,2.70
2023-01-19T17:31:27.550Z,2.30
2023-01-19T17:33:54.052Z,3.13
2023-01-19T17:36:22.539Z,2.47
2023-01-19T17:38:49.671Z,2.35
2023-01-19T17:41:20.462Z,2.00
2023-01-19T17:43:47.030Z,1.60
2023-01-19T17:46:13.578Z,1.90
2023-01-19T17:48:40.026Z,2.17
2023-01-19T17:51:10.801Z,2.15
2023-01-19T17:53:37.987Z,1.83
2023-01-19T17:56:09.504Z,1.73
2023-01-19T17:58:35.963Z,1.92
2023-01-19T18:01:22.204Z,1.50
2023-01-19T18:03:48.755Z,1.33
2023-01-19T18:06:15.219Z,1.40
2023-01-19T18:08:43.482Z,4.38
2023-01-19T18:11:10.385Z,1.90
2023-01-19T18:13:37.067Z,2.10
2023-01-19T18:16:08.502Z,1.50
2023-01-19T18:18:35.435Z,1.67
2023-01-19T18:21:03.108Z,1.67
2023-01-19T18:23:29.524Z,1.20
2023-01-19T18:26:06.847Z,2.03
2023-01-19T18:28:33.323Z,1.23
2023-01-19T18:30:59.935Z,1.77
2023-01-19T18:33:26.518Z,0.98
2023-01-19T18:35:53.184Z,1.23
2023-01-19T18:38:19.679Z,1.23
2023-01-19T18:40:46.116Z,1.23
2023-01-19T18:43:12.583Z,1.10
2023-01-19T18:45:39.085Z,1.30
2023-01-19T18:48:05.889Z,1.25
2023-01-19T18:50:32.399Z,0.80
2023-01-19T18:52:58.896Z,0.70
2023-01-19T18:55:25.341Z,1.10
2023-01-19T18:57:51.744Z,1.00
2023-01-19T19:00:18.670Z,1.55
2023-01-19T19:02:45.076Z,1.00
2023-01-19T19:05:11.578Z,1.10
2023-01-19T19:07:38.089Z,0.95
2023-01-19T19:10:05.504Z,0.98
2023-01-19T19:12:32.502Z,0.95
2023-01-19T19:14:59.058Z,1.05
2023-01-19T19:17:25.552Z,0.93
2023-01-19T19:19:52.206Z,0.73
2023-01-19T19:22:18.602Z,1.20
2023-01-19T19:24:45.024Z,0.85
2023-01-19T19:27:11.442Z,1.30
2023-01-19T19:29:37.944Z,0.95
2023-01-19T19:32:04.616Z,0.98
2023-01-19T19:34:31.044Z,1.33
2023-01-19T19:36:59.728Z,1.42
2023-01-19T19:41:53.716Z,0.80
2023-01-19T19:44:20.132Z,0.73
2023-01-19T19:46:46.607Z,0.70
2023-01-19T19:49:13.036Z,0.68
2023-01-19T19:51:39.475Z,0.65
2023-01-19T19:54:05.890Z,1.20
2023-01-19T19:56:32.353Z,0.73
2023-01-19T19:58:58.859Z,0.80
2023-01-19T20:01:28.073Z,0.80
2023-01-19T20:03:56.592Z,0.80
2023-01-19T20:06:24.185Z,1.05
2023-01-19T20:08:51.664Z,1.05
2023-01-19T20:11:20.769Z,0.70
2023-01-19T20:13:47.200Z,0.60
2023-01-19T20:16:17.834Z,0.90
2023-01-19T20:18:45.024Z,0.90
2023-01-19T20:21:13.277Z,1.15
2023-01-19T20:23:42.701Z,0.85
2023-01-19T20:26:09.878Z,0.93
2023-01-19T20:28:36.588Z,1.35
2023-01-19T20:31:26.137Z,1.20
2023-01-19T20:33:52.787Z,0.85
2023-01-19T20:36:19.248Z,1.20
2023-01-19T20:38:45.693Z,1.05
2023-01-19T20:41:12.270Z,1.40
2023-01-19T20:43:38.693Z,1.20
2023-01-19T20:46:05.320Z,0.82
2023-01-19T20:48:31.797Z,0.93
2023-01-19T20:51:05.287Z,0.95
2023-01-19T20:53:32.962Z,1.10
2023-01-19T20:56:05.945Z,1.20
2023-01-19T20:58:32.905Z,1.35
2023-01-19T21:00:59.401Z,1.00
2023-01-19T21:03:25.897Z,1.15
2023-01-19T21:05:54.476Z,0.75
2023-01-19T21:08:20.919Z,0.68
2023-01-19T21:10:47.347Z,0.90
2023-01-19T21:13:13.788Z,1.30
2023-01-19T21:15:40.218Z,0.82
2023-01-19T21:18:06.649Z,1.13
2023-01-19T21:20:33.083Z,1.33
2023-01-19T21:22:59.483Z,1.73
2023-01-19T21:25:25.962Z,1.50
2023-01-19T21:27:52.778Z,1.17
2023-01-19T21:30:19.309Z,1.10
2023-01-19T21:32:45.770Z,1.23
2023-01-19T21:35:12.493Z,0.98
2023-01-19T21:37:39.073Z,1.20
2023-01-19T21:40:06.255Z,1.88
2023-01-19T21:42:32.679Z,1.17
2023-01-19T21:44:59.124Z,1.15
2023-01-19T21:47:25.595Z,1.60
2023-01-19T21:49:52.172Z,1.40
2023-01-19T21:52:18.803Z,1.13
2023-01-19T21:54:45.328Z,0.90
2023-01-19T21:57:11.873Z,1.27
2023-01-19T21:59:38.365Z,1.33
2023-01-19T22:02:06.912Z,1.08
2023-01-19T22:04:33.556Z,1.60
2023-01-19T22:06:59.981Z,1.35
2023-01-19T22:09:26.395Z,1.02
2023-01-19T22:11:52.833Z,1.42
2023-01-19T22:14:19.263Z,1.50
2023-01-19T22:16:45.797Z,1.10
2023-01-19T22:19:12.308Z,1.38
2023-01-19T22:21:38.771Z,1.63
2023-01-19T22:24:07.832Z,1.02
2023-01-19T22:26:34.571Z,1.50
2023-01-19T22:29:01.267Z,1.60
2023-01-19T22:31:28.507Z,1.35
2023-01-19T22:33:55.161Z,1.02
2023-01-19T22:36:25.981Z,1.08
2023-01-19T22:38:56.553Z,1.38
2023-01-19T22:41:24.768Z,1.17
2023-01-19T22:43:52.868Z,1.30
2023-01-19T22:46:20.042Z,1.50
2023-01-19T22:48:47.457Z,1.25
2023-01-19T22:51:14.134Z,1.40
2023-01-19T22:53:40.541Z,1.52
2023-01-19T22:56:17.899Z,1.45
2023-01-19T22:58:44.661Z,1.45
2023-01-19T23:01:18.626Z,1.85
2023-01-19T23:03:45.195Z,1.55
2023-01-19T23:06:13.161Z,1.33
2023-01-19T23:08:39.765Z,2.30
2023-01-19T23:11:17.168Z,1.23
2023-01-19T23:13:43.737Z,1.58
2023-01-19T23:16:10.333Z,1.55
2023-01-19T23:18:36.755Z,1.63
2023-01-19T23:21:13.153Z,1.50
2023-01-19T23:23:39.601Z,1.17
2023-01-19T23:26:07.987Z,1.35
2023-01-19T23:28:34.585Z,1.65
2023-01-19T23:31:01.189Z,1.52
2023-01-19T23:33:27.666Z,1.48
2023-01-19T23:35:56.853Z,1.35
2023-01-19T23:38:23.302Z,1.60
2023-01-19T23:40:49.936Z,1.38
2023-01-19T23:43:16.405Z,1.17
2023-01-19T23:45:42.835Z,1.67
2023-01-19T23:48:09.329Z,1.45
2023-01-19T23:50:39.464Z,1.33
2023-01-19T23:53:05.893Z,1.55
2023-01-19T23:55:32.312Z,1.40
2023-01-19T23:57:58.688Z,1.40
